Time;durP1;ratioP1;P1;durP2;ratioP2;P2;SDS_P1;SDS_P2;PMS_P1;PMS_P2;Temp;Humidity;BMP_temperature;BMP_pressure;BME280_temperature;BME280_humidity;BME280_pressure;Samples;Min_cycle;Max_cycle;Signal;HPM_P1;HPM_P2
2022/08/09 00:01:34;;;;;;;3.85;3.60;;;;;;;;;;4981764;28;20093;-70
2022/08/09 00:03:59;;;;;;;4.13;3.83;;;;;;;;;;4999559;28;20503;-70
2022/08/09 00:06:24;;;;;;;3.90;3.60;;;;;;;;;;4997229;28;20113;-70
2022/08/09 00:08:50;;;;;;;3.42;3.22;;;;;;;;;;4999982;28;20023;-71
2022/08/09 00:11:18;;;;;;;4.03;3.65;;;;;;;;;;5004266;28;20479;-71
2022/08/09 00:13:43;;;;;;;3.80;3.50;;;;;;;;;;4987841;28;20149;-70
2022/08/09 00:16:09;;;;;;;4.18;3.78;;;;;;;;;;4980382;28;20117;-69
2022/08/09 00:18:34;;;;;;;3.55;3.35;;;;;;;;;;5004429;28;20117;-70
2022/08/09 00:21:03;;;;;;;4.00;3.60;;;;;;;;;;5003359;28;20504;-69
2022/08/09 00:23:29;;;;;;;3.70;3.50;;;;;;;;;;4998941;28;20057;-69
2022/08/09 00:25:54;;;;;;;3.97;3.67;;;;;;;;;;4996713;28;20033;-71
2022/08/09 00:28:20;;;;;;;5.38;3.90;;;;;;;;;;4981194;28;20144;-69
2022/08/09 00:30:45;;;;;;;5.05;4.38;;;;;;;;;;4977864;28;20480;-69
2022/08/09 00:33:10;;;;;;;3.60;3.25;;;;;;;;;;4982614;28;20023;-68
2022/08/09 00:35:36;;;;;;;7.60;3.85;;;;;;;;;;4987484;28;20023;-68
2022/08/09 00:38:01;;;;;;;3.70;3.50;;;;;;;;;;4988172;28;20361;-69
2022/08/09 00:40:26;;;;;;;3.95;3.65;;;;;;;;;;4988738;28;20030;-69
2022/08/09 00:42:51;;;;;;;4.03;3.58;;;;;;;;;;4988240;28;20031;-69
2022/08/09 00:45:17;;;;;;;4.68;3.95;;;;;;;;;;4985006;28;20031;-70
2022/08/09 00:47:42;;;;;;;4.18;3.70;;;;;;;;;;4982637;28;20125;-69
2022/08/09 00:50:07;;;;;;;4.88;3.70;;;;;;;;;;4984073;28;20057;-68
2022/08/09 00:52:33;;;;;;;4.30;3.90;;;;;;;;;;4982084;28;20026;-69
2022/08/09 00:54:59;;;;;;;4.20;3.90;;;;;;;;;;4982590;28;20026;-69
2022/08/09 00:57:24;;;;;;;4.32;3.60;;;;;;;;;;4969891;28;20117;-67
2022/08/09 00:59:49;;;;;;;4.35;3.50;;;;;;;;;;4981831;28;20687;-68
2022/08/09 01:02:18;;;;;;;6.82;3.60;;;;;;;;;;4982225;28;20073;-68
2022/08/09 01:04:51;;;;;;;4.30;3.80;;;;;;;;;;4985301;28;20030;-68
2022/08/09 01:07:35;;;;;;;5.82;3.85;;;;;;;;;;4987289;28;20031;-67
2022/08/09 01:10:10;;;;;;;9.23;4.00;;;;;;;;;;4981184;28;20130;-68
2022/08/09 01:12:45;;;;;;;3.25;3.05;;;;;;;;;;4979657;28;20750;-68
2022/08/09 01:15:17;;;;;;;5.85;3.92;;;;;;;;;;4981783;28;20096;-67
2022/08/09 01:17:42;;;;;;;4.88;4.20;;;;;;;;;;4979956;28;20030;-67
2022/08/09 01:20:09;;;;;;;3.75;3.45;;;;;;;;;;4986201;28;20022;-68
2022/08/09 01:22:46;;;;;;;4.57;4.28;;;;;;;;;;4979898;28;20046;-68
2022/08/09 01:25:30;;;;;;;3.65;3.35;;;;;;;;;;4979660;28;20114;-68
2022/08/09 01:27:56;;;;;;;5.38;3.63;;;;;;;;;;4995124;28;20153;-68
2022/08/09 01:30:24;;;;;;;4.18;3.75;;;;;;;;;;4999393;28;20034;-68
2022/08/09 01:32:50;;;;;;;4.70;4.10;;;;;;;;;;5006003;28;20037;-68
2022/08/09 01:35:24;;;;;;;3.70;3.50;;;;;;;;;;5001698;28;20040;-68
2022/08/09 01:37:52;;;;;;;4.43;3.95;;;;;;;;;;4999650;28;20084;-67
2022/08/09 01:40:18;;;;;;;4.28;4.00;;;;;;;;;;5001762;28;20038;-67
2022/08/09 01:42:44;;;;;;;4.25;3.85;;;;;;;;;;4999409;28;20028;-67
2022/08/09 01:45:10;;;;;;;3.95;3.65;;;;;;;;;;4998879;28;20125;-67
2022/08/09 01:47:36;;;;;;;4.38;4.07;;;;;;;;;;4999643;28;20068;-67
2022/08/09 01:50:03;;;;;;;4.30;4.00;;;;;;;;;;4999191;28;20049;-67
2022/08/09 01:52:28;;;;;;;3.95;3.55;;;;;;;;;;5002546;28;20487;-67
2022/08/09 01:54:55;;;;;;;3.80;3.50;;;;;;;;;;4998409;28;20057;-67
2022/08/09 01:57:26;;;;;;;4.38;3.75;;;;;;;;;;5001481;28;20022;-68
2022/08/09 01:59:52;;;;;;;4.43;3.60;;;;;;;;;;4998288;28;20246;-68
2022/08/09 02:02:20;;;;;;;4.78;3.75;;;;;;;;;;4999961;28;20049;-68
2022/08/09 02:04:46;;;;;;;3.75;3.47;;;;;;;;;;5005672;28;20112;-68
2022/08/09 02:07:15;;;;;;;4.38;3.90;;;;;;;;;;5004683;28;20531;-66
2022/08/09 02:10:04;;;;;;;4.10;3.80;;;;;;;;;;4997894;28;20038;-68
2022/08/09 02:12:29;;;;;;;4.25;3.75;;;;;;;;;;4999178;28;20018;-66
2022/08/09 02:14:55;;;;;;;6.95;4.20;;;;;;;;;;4999471;28;20044;-70
2022/08/09 02:17:23;;;;;;;4.03;3.70;;;;;;;;;;4982166;28;20029;-62
2022/08/09 02:19:49;;;;;;;6.18;4.18;;;;;;;;;;5003553;28;20623;-62
2022/08/09 02:22:30;;;;;;;3.95;3.65;;;;;;;;;;5003025;28;20033;-69
2022/08/09 02:24:57;;;;;;;5.10;4.65;;;;;;;;;;4998253;28;20030;-69
2022/08/09 02:27:23;;;;;;;3.75;3.45;;;;;;;;;;5001528;28;20025;-69
2022/08/09 02:29:50;;;;;;;3.78;3.47;;;;;;;;;;5001409;28;20061;-70
2022/08/09 02:32:17;;;;;;;4.53;4.13;;;;;;;;;;4997752;28;20534;-69
2022/08/09 02:34:44;;;;;;;4.00;3.67;;;;;;;;;;5001902;28;20471;-69
2022/08/09 02:37:13;;;;;;;4.10;3.80;;;;;;;;;;4996984;28;20029;-69
2022/08/09 02:39:40;;;;;;;5.20;4.05;;;;;;;;;;5001968;28;20034;-69
2022/08/09 02:42:07;;;;;;;8.32;3.97;;;;;;;;;;5005059;28;20025;-69
2022/08/09 02:44:55;;;;;;;4.03;3.53;;;;;;;;;;4998671;28;20017;-69
2022/08/09 02:47:22;;;;;;;3.80;3.30;;;;;;;;;;4985654;28;20064;-69
2022/08/09 02:49:58;;;;;;;6.15;4.15;;;;;;;;;;5000590;28;20539;-69
2022/08/09 02:52:26;;;;;;;4.80;3.60;;;;;;;;;;4998529;28;20115;-69
2022/08/09 02:54:52;;;;;;;3.85;3.55;;;;;;;;;;5002467;28;20036;-69
2022/08/09 02:57:18;;;;;;;4.28;3.45;;;;;;;;;;4997116;28;20388;-69
2022/08/09 02:59:44;;;;;;;3.83;3.47;;;;;;;;;;5001536;28;20442;-68
2022/08/09 03:02:11;;;;;;;3.58;3.35;;;;;;;;;;5001912;28;20034;-69
2022/08/09 03:04:37;;;;;;;4.20;3.80;;;;;;;;;;4997741;28;20551;-69
2022/08/09 03:07:03;;;;;;;7.38;3.47;;;;;;;;;;4966282;28;20026;-69
2022/08/09 03:09:29;;;;;;;4.63;3.50;;;;;;;;;;4998211;28;20056;-69
2022/08/09 03:11:55;;;;;;;4.28;3.60;;;;;;;;;;4997121;28;20033;-69
2022/08/09 03:14:20;;;;;;;4.57;3.33;;;;;;;;;;5004523;28;20029;-69
2022/08/09 03:16:46;;;;;;;3.55;3.35;;;;;;;;;;5003659;28;20232;-69
2022/08/09 03:19:12;;;;;;;3.42;3.22;;;;;;;;;;5004291;28;20245;-69
2022/08/09 03:21:49;;;;;;;4.57;3.35;;;;;;;;;;4969191;28;20556;-71
2022/08/09 03:24:16;;;;;;;3.83;3.53;;;;;;;;;;5003546;28;20021;-71
2022/08/09 03:26:47;;;;;;;7.25;3.88;;;;;;;;;;5003289;28;20040;-69
2022/08/09 03:29:14;;;;;;;4.03;3.13;;;;;;;;;;4983463;28;20102;-69
2022/08/09 03:31:40;;;;;;;4.53;3.85;;;;;;;;;;4981982;28;20092;-69
2022/08/09 03:34:06;;;;;;;3.72;3.42;;;;;;;;;;4984409;28;20631;-69
2022/08/09 03:36:31;;;;;;;4.43;3.70;;;;;;;;;;4978822;28;20122;-69
2022/08/09 03:38:57;;;;;;;4.22;3.78;;;;;;;;;;4977584;28;20032;-69
2022/08/09 03:41:22;;;;;;;4.95;3.45;;;;;;;;;;4983418;28;20026;-69
2022/08/09 03:43:47;;;;;;;3.55;3.35;;;;;;;;;;4984176;28;20060;-69
2022/08/09 03:46:13;;;;;;;4.63;3.80;;;;;;;;;;4983820;28;20033;-69
2022/08/09 03:48:38;;;;;;;3.92;3.50;;;;;;;;;;4978190;28;20018;-69
2022/08/09 03:51:06;;;;;;;4.22;3.85;;;;;;;;;;4977643;28;20033;-69
2022/08/09 03:53:31;;;;;;;4.75;3.60;;;;;;;;;;4984541;28;20022;-68
2022/08/09 03:55:56;;;;;;;3.42;3.15;;;;;;;;;;4982528;28;20026;-68
2022/08/09 03:58:21;;;;;;;4.00;3.70;;;;;;;;;;4980434;28;20384;-68
2022/08/09 04:00:47;;;;;;;3.80;3.53;;;;;;;;;;4982402;28;20038;-69
2022/08/09 04:03:13;;;;;;;5.30;3.90;;;;;;;;;;4982815;28;20019;-69
2022/08/09 04:05:38;;;;;;;4.65;3.55;;;;;;;;;;4984895;28;20026;-69
2022/08/09 04:08:03;;;;;;;3.88;3.42;;;;;;;;;;4984009;28;20033;-69
2022/08/09 04:10:29;;;;;;;3.85;3.55;;;;;;;;;;4984463;28;20514;-69
2022/08/09 04:12:54;;;;;;;4.07;3.47;;;;;;;;;;4980840;28;20634;-68
2022/08/09 04:15:21;;;;;;;5.35;3.42;;;;;;;;;;4984526;28;20520;-70
2022/08/09 04:17:47;;;;;;;3.53;3.22;;;;;;;;;;4984321;28;20070;-69
2022/08/09 04:20:13;;;;;;;4.10;3.70;;;;;;;;;;4982209;28;20124;-69
2022/08/09 04:22:39;;;;;;;6.25;3.90;;;;;;;;;;4980847;28;20026;-69
2022/08/09 04:25:05;;;;;;;3.20;3.00;;;;;;;;;;4986206;28;20059;-69
2022/08/09 04:27:30;;;;;;;3.45;3.25;;;;;;;;;;4988071;28;20018;-68
2022/08/09 04:29:56;;;;;;;3.72;3.42;;;;;;;;;;5004388;28;20061;-70
2022/08/09 04:32:21;;;;;;;3.67;3.38;;;;;;;;;;5006378;28;20022;-69
2022/08/09 04:34:47;;;;;;;3.75;3.45;;;;;;;;;;5002462;28;20082;-69
2022/08/09 04:37:12;;;;;;;5.32;3.30;;;;;;;;;;5003902;28;20064;-69
2022/08/09 04:39:37;;;;;;;4.05;3.17;;;;;;;;;;5000879;28;20029;-69
2022/08/09 04:42:03;;;;;;;4.97;3.25;;;;;;;;;;5003843;28;20026;-69
2022/08/09 04:44:28;;;;;;;3.60;3.33;;;;;;;;;;5006119;28;20021;-69
2022/08/09 04:46:53;;;;;;;5.35;3.50;;;;;;;;;;5001335;28;20172;-70
2022/08/09 04:49:19;;;;;;;6.88;3.65;;;;;;;;;;5000419;28;20412;-69
2022/08/09 04:51:45;;;;;;;4.10;3.75;;;;;;;;;;5003450;28;20388;-70
2022/08/09 04:54:10;;;;;;;4.15;3.03;;;;;;;;;;4998883;28;20454;-69
2022/08/09 04:56:36;;;;;;;4.40;3.33;;;;;;;;;;5001398;28;20075;-69
2022/08/09 04:59:01;;;;;;;3.35;3.05;;;;;;;;;;4999279;28;20030;-69
2022/08/09 05:01:26;;;;;;;3.58;2.90;;;;;;;;;;4979763;28;20535;-70
2022/08/09 05:03:52;;;;;;;3.35;3.15;;;;;;;;;;4984892;28;20034;-69
2022/08/09 05:06:17;;;;;;;3.25;3.03;;;;;;;;;;4977129;28;20026;-68
2022/08/09 05:08:42;;;;;;;2.95;2.75;;;;;;;;;;5001502;28;20028;-68
2022/08/09 05:11:08;;;;;;;3.15;2.95;;;;;;;;;;4997413;28;20025;-68
2022/08/09 05:13:33;;;;;;;3.10;2.90;;;;;;;;;;5003706;28;20328;-70
2022/08/09 05:15:59;;;;;;;3.10;2.90;;;;;;;;;;4999830;28;20045;-70
2022/08/09 05:18:28;;;;;;;2.88;2.65;;;;;;;;;;5001858;28;20022;-69
2022/08/09 05:20:54;;;;;;;2.97;2.58;;;;;;;;;;4999195;28;20030;-69
2022/08/09 05:23:19;;;;;;;5.00;3.00;;;;;;;;;;5000440;28;20416;-68
2022/08/09 05:25:44;;;;;;;4.20;3.17;;;;;;;;;;4983359;28;20498;-69
2022/08/09 05:28:09;;;;;;;4.93;3.13;;;;;;;;;;5000382;28;20476;-69
2022/08/09 05:30:34;;;;;;;4.35;3.22;;;;;;;;;;5001533;28;20041;-69
2022/08/09 05:33:00;;;;;;;2.70;2.50;;;;;;;;;;4999565;28;20030;-69
2022/08/09 05:35:25;;;;;;;3.95;2.85;;;;;;;;;;5003633;28;20024;-69
2022/08/09 05:37:51;;;;;;;7.22;3.70;;;;;;;;;;5002507;28;20436;-69
2022/08/09 05:40:16;;;;;;;3.53;3.22;;;;;;;;;;4998497;28;20615;-70
2022/08/09 05:42:41;;;;;;;4.85;3.08;;;;;;;;;;5001294;28;20450;-69
2022/08/09 05:45:07;;;;;;;3.03;2.83;;;;;;;;;;4998263;28;20034;-69
2022/08/09 05:47:32;;;;;;;3.15;2.92;;;;;;;;;;5003052;28;20037;-70
2022/08/09 05:49:57;;;;;;;3.83;2.67;;;;;;;;;;4999124;28;20320;-69
2022/08/09 05:52:23;;;;;;;4.00;3.20;;;;;;;;;;5000458;28;20412;-69
2022/08/09 05:54:48;;;;;;;6.18;3.03;;;;;;;;;;4999140;28;20103;-70
2022/08/09 05:57:13;;;;;;;3.17;2.90;;;;;;;;;;5000372;28;20391;-69
2022/08/09 05:59:38;;;;;;;5.10;2.92;;;;;;;;;;5002630;28;20025;-70
2022/08/09 06:02:04;;;;;;;3.10;2.83;;;;;;;;;;4965488;28;20081;-70
2022/08/09 06:04:29;;;;;;;4.30;2.60;;;;;;;;;;4978754;28;20108;-71
2022/08/09 06:06:54;;;;;;;4.78;2.65;;;;;;;;;;4998540;28;20046;-70
2022/08/09 06:09:19;;;;;;;5.05;2.47;;;;;;;;;;5001155;28;20140;-70
2022/08/09 06:11:45;;;;;;;3.67;2.33;;;;;;;;;;4998152;28;20030;-69
2022/08/09 06:14:10;;;;;;;4.35;2.50;;;;;;;;;;4999651;28;20069;-69
2022/08/09 06:16:35;;;;;;;6.20;2.63;;;;;;;;;;4999484;28;20310;-70
2022/08/09 06:19:01;;;;;;;11.70;2.83;;;;;;;;;;4999383;28;20385;-70
2022/08/09 06:21:26;;;;;;;4.38;2.30;;;;;;;;;;5002929;28;20115;-69
2022/08/09 06:23:51;;;;;;;3.08;2.40;;;;;;;;;;4997669;28;20038;-69
2022/08/09 06:26:18;;;;;;;4.63;2.42;;;;;;;;;;4984050;28;20026;-69
2022/08/09 06:28:43;;;;;;;3.38;2.58;;;;;;;;;;4997194;28;20054;-69
2022/08/09 06:31:08;;;;;;;7.68;3.22;;;;;;;;;;4999915;28;20044;-71
2022/08/09 06:33:33;;;;;;;4.32;2.40;;;;;;;;;;4997728;28;20132;-70
2022/08/09 06:35:59;;;;;;;2.40;2.17;;;;;;;;;;4997516;28;20029;-70
2022/08/09 06:38:25;;;;;;;3.58;2.63;;;;;;;;;;5004170;28;20120;-69
2022/08/09 06:40:51;;;;;;;2.50;2.30;;;;;;;;;;5004250;28;20450;-71
2022/08/09 06:43:16;;;;;;;2.65;2.13;;;;;;;;;;5004559;28;20443;-70
2022/08/09 06:45:41;;;;;;;2.75;2.30;;;;;;;;;;5004388;28;20041;-69
2022/08/09 06:48:06;;;;;;;3.65;2.70;;;;;;;;;;5000867;28;20025;-69
2022/08/09 06:50:32;;;;;;;3.55;2.40;;;;;;;;;;4997687;28;20561;-70
2022/08/09 06:52:59;;;;;;;2.17;2.05;;;;;;;;;;5003016;28;20030;-70
2022/08/09 06:55:28;;;;;;;4.45;2.40;;;;;;;;;;5004371;28;20026;-70
2022/08/09 06:57:54;;;;;;;2.55;2.17;;;;;;;;;;5004481;28;20163;-70
2022/08/09 07:00:19;;;;;;;3.45;2.60;;;;;;;;;;4990061;28;20034;-69
2022/08/09 07:02:44;;;;;;;4.90;2.80;;;;;;;;;;4987493;28;20034;-69
2022/08/09 07:05:09;;;;;;;2.35;2.15;;;;;;;;;;5001899;28;20585;-70
2022/08/09 07:07:35;;;;;;;3.47;2.42;;;;;;;;;;4997776;28;20030;-70
2022/08/09 07:10:00;;;;;;;3.20;3.00;;;;;;;;;;4999878;28;20026;-68
2022/08/09 07:12:25;;;;;;;3.00;2.70;;;;;;;;;;4974303;28;20124;-67
2022/08/09 07:14:51;;;;;;;4.28;2.40;;;;;;;;;;4997973;28;20451;-68
2022/08/09 07:17:16;;;;;;;4.07;3.03;;;;;;;;;;5003894;28;20080;-67
2022/08/09 07:19:41;;;;;;;6.03;2.30;;;;;;;;;;5000490;28;20030;-68
2022/08/09 07:22:07;;;;;;;7.63;2.47;;;;;;;;;;4972543;28;20589;-68
2022/08/09 07:24:32;;;;;;;3.75;2.15;;;;;;;;;;5000345;28;20037;-68
2022/08/09 07:26:58;;;;;;;4.53;2.78;;;;;;;;;;4992374;28;20022;-68
2022/08/09 07:29:24;;;;;;;4.03;2.40;;;;;;;;;;4995719;28;20497;-67
2022/08/09 07:31:49;;;;;;;3.75;2.05;;;;;;;;;;4998285;28;20434;-68
2022/08/09 07:34:15;;;;;;;3.58;2.40;;;;;;;;;;4998173;28;20034;-68
2022/08/09 07:36:40;;;;;;;3.33;2.70;;;;;;;;;;4997746;28;20543;-68
2022/08/09 07:39:05;;;;;;;2.63;2.35;;;;;;;;;;5000675;28;20081;-69
2022/08/09 07:41:31;;;;;;;5.97;2.45;;;;;;;;;;4996386;28;20161;-59
2022/08/09 07:43:56;;;;;;;3.03;2.65;;;;;;;;;;4999461;28;20033;-66
2022/08/09 07:46:22;;;;;;;6.78;2.83;;;;;;;;;;5002846;28;20064;-62
2022/08/09 07:48:47;;;;;;;3.85;3.30;;;;;;;;;;4995324;28;20026;-66
2022/08/09 07:51:12;;;;;;;4.25;2.50;;;;;;;;;;4996568;28;20122;-66
2022/08/09 07:53:38;;;;;;;4.80;2.80;;;;;;;;;;4999989;28;20423;-66
2022/08/09 07:56:03;;;;;;;4.45;3.55;;;;;;;;;;4997046;28;20030;-67
2022/08/09 07:58:29;;;;;;;4.53;3.00;;;;;;;;;;4999632;28;20061;-67
2022/08/09 08:00:54;;;;;;;3.65;2.92;;;;;;;;;;4996164;28;20038;-67
2022/08/09 08:03:19;;;;;;;5.30;2.80;;;;;;;;;;4997766;28;20034;-66
2022/08/09 08:05:44;;;;;;;2.90;2.40;;;;;;;;;;4998132;28;20116;-66
2022/08/09 08:08:10;;;;;;;3.35;2.75;;;;;;;;;;4995689;28;20087;-66
2022/08/09 08:10:36;;;;;;;4.88;2.88;;;;;;;;;;5000258;28;20038;-66
2022/08/09 08:13:01;;;;;;;3.65;3.08;;;;;;;;;;5001357;28;20034;-66
2022/08/09 08:15:26;;;;;;;3.85;3.55;;;;;;;;;;4979229;28;20026;-66
2022/08/09 08:17:52;;;;;;;3.17;2.88;;;;;;;;;;4986664;28;20168;-65
2022/08/09 08:20:18;;;;;;;6.10;3.45;;;;;;;;;;5002236;28;20380;-67
2022/08/09 08:22:44;;;;;;;4.57;3.30;;;;;;;;;;4998182;28;20038;-64
2022/08/09 08:25:10;;;;;;;4.65;3.22;;;;;;;;;;4996787;28;20457;-66
2022/08/09 08:27:35;;;;;;;5.35;3.17;;;;;;;;;;4998835;28;20113;-66
2022/08/09 08:30:01;;;;;;;3.97;2.92;;;;;;;;;;4995352;28;20092;-66
2022/08/09 08:32:26;;;;;;;6.05;3.78;;;;;;;;;;4999194;28;20030;-67
2022/08/09 08:34:53;;;;;;;3.78;3.10;;;;;;;;;;4980160;28;20563;-66
2022/08/09 08:37:18;;;;;;;8.85;4.78;;;;;;;;;;4998017;28;20113;-65
2022/08/09 08:39:45;;;;;;;3.70;3.38;;;;;;;;;;5003723;28;20243;-66
2022/08/09 08:42:12;;;;;;;4.55;3.20;;;;;;;;;;5002488;28;20034;-67
2022/08/09 08:44:37;;;;;;;4.72;2.65;;;;;;;;;;5003063;28;20029;-67
2022/08/09 08:47:03;;;;;;;4.30;2.75;;;;;;;;;;5001386;28;20451;-66
2022/08/09 08:49:32;;;;;;;3.72;3.13;;;;;;;;;;4996371;28;20034;-66
2022/08/09 08:51:58;;;;;;;3.50;3.30;;;;;;;;;;4996418;28;20068;-65
2022/08/09 08:54:24;;;;;;;5.50;4.00;;;;;;;;;;5002298;28;20046;-61
2022/08/09 08:56:49;;;;;;;3.85;3.45;;;;;;;;;;5003765;28;20555;-70
2022/08/09 08:59:14;;;;;;;7.38;3.72;;;;;;;;;;5000578;28;20362;-64
2022/08/09 09:01:43;;;;;;;6.78;4.20;;;;;;;;;;5004935;28;20022;-66
2022/08/09 09:04:09;;;;;;;7.40;4.40;;;;;;;;;;4983650;28;20034;-67
2022/08/09 09:06:39;;;;;;;4.00;3.70;;;;;;;;;;5007192;28;20029;-67
2022/08/09 09:09:05;;;;;;;3.97;3.60;;;;;;;;;;5006535;28;20029;-68
2022/08/09 09:11:30;;;;;;;4.05;3.60;;;;;;;;;;5004360;28;20038;-68
2022/08/09 09:13:57;;;;;;;4.68;3.72;;;;;;;;;;5005496;28;20121;-68
2022/08/09 09:16:22;;;;;;;3.80;3.35;;;;;;;;;;5003361;28;20105;-68
2022/08/09 09:18:52;;;;;;;5.38;3.65;;;;;;;;;;4999374;28;20048;-68
2022/08/09 09:21:17;;;;;;;5.90;3.78;;;;;;;;;;5003336;28;20022;-68
2022/08/09 09:23:43;;;;;;;6.53;4.47;;;;;;;;;;4999626;28;20533;-68
2022/08/09 09:26:10;;;;;;;4.00;3.65;;;;;;;;;;5001192;28;20361;-67
2022/08/09 09:28:35;;;;;;;4.47;3.45;;;;;;;;;;5005193;28;20465;-68
2022/08/09 09:31:01;;;;;;;4.70;3.80;;;;;;;;;;5006286;28;20049;-68
2022/08/09 09:33:31;;;;;;;5.05;3.95;;;;;;;;;;5004675;28;20117;-67
2022/08/09 09:35:58;;;;;;;5.45;3.30;;;;;;;;;;5003101;28;20022;-67
2022/08/09 09:38:37;;;;;;;3.58;3.20;;;;;;;;;;4998722;28;20037;-67
2022/08/09 09:41:03;;;;;;;3.33;3.13;;;;;;;;;;5002289;28;20167;-69
2022/08/09 09:43:28;;;;;;;4.25;3.47;;;;;;;;;;4998415;28;20038;-68
2022/08/09 09:45:53;;;;;;;6.47;4.32;;;;;;;;;;5004834;28;20030;-69
2022/08/09 09:48:20;;;;;;;4.18;3.65;;;;;;;;;;5005144;28;20041;-68
2022/08/09 09:50:46;;;;;;;3.35;3.15;;;;;;;;;;4989880;28;20380;-68
2022/08/09 09:53:19;;;;;;;3.83;3.53;;;;;;;;;;4997394;28;20068;-68
2022/08/09 09:55:52;;;;;;;7.20;3.45;;;;;;;;;;5000365;28;20487;-68
2022/08/09 09:58:18;;;;;;;3.47;3.28;;;;;;;;;;4998131;28;20013;-67
2022/08/09 10:00:50;;;;;;;4.82;3.35;;;;;;;;;;4999551;28;20353;-67
2022/08/09 10:03:16;;;;;;;14.23;12.73;;;;;;;;;;5005139;28;20436;-67
2022/08/09 10:06:01;;;;;;;3.88;3.55;;;;;;;;;;4991098;28;20064;-67
2022/08/09 10:08:26;;;;;;;4.30;3.90;;;;;;;;;;4999165;28;20101;-67
2022/08/09 10:10:52;;;;;;;4.07;3.28;;;;;;;;;;4998504;28;20033;-66
2022/08/09 10:13:17;;;;;;;3.70;3.08;;;;;;;;;;5001596;28;20026;-68
2022/08/09 10:15:46;;;;;;;3.53;3.22;;;;;;;;;;4998236;28;20065;-68
2022/08/09 10:18:12;;;;;;;4.60;3.35;;;;;;;;;;5001235;28;20709;-66
2022/08/09 10:20:37;;;;;;;5.03;3.55;;;;;;;;;;4997940;28;20032;-66
2022/08/09 10:23:21;;;;;;;10.20;4.57;;;;;;;;;;5000698;28;20033;-67
2022/08/09 10:25:47;;;;;;;7.50;4.07;;;;;;;;;;4983794;28;20535;-67
2022/08/09 10:28:12;;;;;;;3.55;3.25;;;;;;;;;;4996245;28;20020;-67
2022/08/09 10:30:37;;;;;;;3.85;3.55;;;;;;;;;;4997263;28;20030;-64
2022/08/09 10:33:03;;;;;;;5.05;4.00;;;;;;;;;;4974594;28;20025;-65
2022/08/09 10:35:29;;;;;;;4.22;3.28;;;;;;;;;;5002415;28;20018;-64
2022/08/09 10:37:54;;;;;;;4.00;3.35;;;;;;;;;;4982929;28;20140;-65
2022/08/09 10:40:20;;;;;;;3.67;3.30;;;;;;;;;;4997546;28;20148;-64
2022/08/09 10:42:45;;;;;;;3.40;3.08;;;;;;;;;;4997199;28;20030;-63
2022/08/09 10:45:11;;;;;;;6.80;4.28;;;;;;;;;;4978320;28;20060;-63
2022/08/09 10:47:52;;;;;;;4.05;3.60;;;;;;;;;;4997645;28;20035;-63
2022/08/09 10:50:21;;;;;;;5.18;3.42;;;;;;;;;;4999225;28;20026;-62
2022/08/09 10:53:03;;;;;;;5.32;4.50;;;;;;;;;;4997990;28;20437;-63
2022/08/09 10:55:29;;;;;;;5.90;3.70;;;;;;;;;;5001863;28;20053;-63
2022/08/09 10:57:55;;;;;;;7.18;3.45;;;;;;;;;;5004248;28;20030;-63
2022/08/09 11:00:34;;;;;;;7.60;3.75;;;;;;;;;;4996650;28;20345;-63
2022/08/09 11:03:00;;;;;;;4.97;3.22;;;;;;;;;;4997006;28;20033;-62
2022/08/09 11:05:29;;;;;;;4.10;3.65;;;;;;;;;;5000036;28;20094;-62
2022/08/09 11:07:54;;;;;;;8.40;4.53;;;;;;;;;;4997650;28;20038;-62
2022/08/09 11:10:38;;;;;;;4.28;3.75;;;;;;;;;;4997667;28;20029;-62
2022/08/09 11:13:12;;;;;;;6.25;5.10;;;;;;;;;;4999040;28;20041;-62
2022/08/09 11:15:37;;;;;;;4.25;3.53;;;;;;;;;;4980551;28;20471;-62
2022/08/09 11:18:02;;;;;;;7.03;3.70;;;;;;;;;;4999745;28;20057;-63
2022/08/09 11:20:44;;;;;;;3.72;3.50;;;;;;;;;;4996354;28;20030;-63
2022/08/09 11:23:10;;;;;;;3.72;3.40;;;;;;;;;;5001281;28;20040;-63
2022/08/09 11:25:36;;;;;;;3.60;3.30;;;;;;;;;;4996081;28;20021;-63
2022/08/09 11:28:21;;;;;;;8.73;3.65;;;;;;;;;;4996249;28;20083;-63
2022/08/09 11:30:46;;;;;;;4.90;3.95;;;;;;;;;;4997176;28;20022;-63
2022/08/09 11:33:12;;;;;;;6.90;4.18;;;;;;;;;;4996125;28;20025;-63
2022/08/09 11:35:40;;;;;;;4.43;4.03;;;;;;;;;;4998443;28;20026;-63
2022/08/09 11:38:16;;;;;;;4.32;3.72;;;;;;;;;;4995072;28;20372;-62
2022/08/09 11:40:42;;;;;;;6.97;4.43;;;;;;;;;;4974665;28;20033;-65
2022/08/09 11:43:07;;;;;;;3.97;3.67;;;;;;;;;;4996311;28;20018;-63
2022/08/09 11:45:43;;;;;;;5.05;4.00;;;;;;;;;;4999251;28;20531;-63
2022/08/09 11:48:11;;;;;;;4.07;3.75;;;;;;;;;;4997291;28;20461;-63
2022/08/09 11:50:55;;;;;;;6.90;4.55;;;;;;;;;;4996062;28;20021;-62
2022/08/09 11:53:20;;;;;;;3.80;3.38;;;;;;;;;;4999898;28;20080;-67
2022/08/09 11:55:46;;;;;;;3.70;3.17;;;;;;;;;;4997299;28;20523;-64
2022/08/09 11:58:14;;;;;;;6.90;3.95;;;;;;;;;;4995417;28;20018;-66
2022/08/09 12:00:47;;;;;;;3.85;3.58;;;;;;;;;;4996192;28;20171;-65
2022/08/09 12:03:14;;;;;;;5.30;3.65;;;;;;;;;;4997867;28;20045;-66
2022/08/09 12:05:39;;;;;;;5.70;4.18;;;;;;;;;;4995705;28;20461;-65
2022/08/09 12:08:06;;;;;;;4.97;3.92;;;;;;;;;;4997822;28;20022;-66
2022/08/09 12:10:31;;;;;;;3.97;3.60;;;;;;;;;;4996258;28;20030;-65
2022/08/09 12:12:56;;;;;;;6.75;3.75;;;;;;;;;;4997437;28;20404;-66
2022/08/09 12:15:23;;;;;;;6.03;4.03;;;;;;;;;;4996949;28;20040;-66
2022/08/09 12:17:49;;;;;;;5.03;3.45;;;;;;;;;;4996585;28;20336;-66
2022/08/09 12:20:15;;;;;;;3.63;3.33;;;;;;;;;;4998514;28;20030;-66
2022/08/09 12:22:41;;;;;;;3.47;3.25;;;;;;;;;;4995372;28;20460;-65
2022/08/09 12:25:13;;;;;;;4.50;3.38;;;;;;;;;;4997287;28;20018;-65
2022/08/09 12:27:38;;;;;;;3.85;3.40;;;;;;;;;;4995766;28;20076;-65
2022/08/09 12:30:06;;;;;;;3.50;3.25;;;;;;;;;;4995270;28;20160;-64
2022/08/09 12:32:31;;;;;;;3.50;3.30;;;;;;;;;;4999455;28;20022;-62
2022/08/09 12:35:00;;;;;;;3.65;3.40;;;;;;;;;;4998638;28;20033;-68
2022/08/09 12:37:32;;;;;;;3.88;3.53;;;;;;;;;;4999119;28;20061;-65
2022/08/09 12:40:00;;;;;;;3.70;3.50;;;;;;;;;;4999303;28;20148;-63
2022/08/09 12:42:26;;;;;;;3.65;3.35;;;;;;;;;;5002248;28;20033;-65
2022/08/09 12:44:51;;;;;;;4.03;3.72;;;;;;;;;;4999458;28;20038;-63
2022/08/09 12:47:16;;;;;;;3.95;3.67;;;;;;;;;;5001433;28;20022;-63
2022/08/09 12:49:42;;;;;;;3.40;3.10;;;;;;;;;;4998633;28;20135;-62
2022/08/09 12:52:09;;;;;;;3.78;3.47;;;;;;;;;;5000991;28;20046;-64
2022/08/09 12:54:47;;;;;;;3.65;3.45;;;;;;;;;;5000018;28;20029;-64
2022/08/09 12:57:12;;;;;;;3.70;3.42;;;;;;;;;;5000353;28;20021;-64
2022/08/09 12:59:37;;;;;;;4.72;3.70;;;;;;;;;;4986504;28;20535;-64
2022/08/09 13:02:04;;;;;;;5.45;4.95;;;;;;;;;;4998011;28;20488;-64
2022/08/09 13:04:30;;;;;;;4.20;3.90;;;;;;;;;;5002884;28;20022;-64
2022/08/09 13:06:55;;;;;;;3.80;3.50;;;;;;;;;;4998189;28;20384;-64
2022/08/09 13:09:20;;;;;;;4.18;3.35;;;;;;;;;;5001422;28;20522;-64
2022/08/09 13:11:47;;;;;;;4.55;3.42;;;;;;;;;;4998674;28;20100;-64
2022/08/09 13:14:13;;;;;;;2.75;2.55;;;;;;;;;;5000909;28;20018;-63
2022/08/09 13:16:39;;;;;;;3.55;3.20;;;;;;;;;;4999900;28;20521;-61
2022/08/09 13:19:04;;;;;;;3.10;2.85;;;;;;;;;;4999519;28;20068;-62
2022/08/09 13:21:29;;;;;;;3.83;3.50;;;;;;;;;;5005832;28;20411;-62
2022/08/09 13:24:02;;;;;;;3.72;3.38;;;;;;;;;;4984517;28;20037;-60
2022/08/09 13:26:35;;;;;;;2.95;2.80;;;;;;;;;;4998342;28;20092;-62
2022/08/09 13:29:05;;;;;;;3.47;3.00;;;;;;;;;;5001578;28;20700;-60
2022/08/09 13:31:30;;;;;;;6.00;3.15;;;;;;;;;;4998553;28;20211;-62
2022/08/09 13:33:56;;;;;;;3.83;3.50;;;;;;;;;;4988743;28;20030;-63
2022/08/09 13:36:21;;;;;;;3.42;3.25;;;;;;;;;;5001899;28;20472;-62
2022/08/09 13:38:46;;;;;;;3.85;2.80;;;;;;;;;;4998966;28;20057;-62
2022/08/09 13:41:12;;;;;;;3.17;2.97;;;;;;;;;;5000574;28;20124;-63
2022/08/09 13:43:38;;;;;;;5.03;3.72;;;;;;;;;;4997263;28;20809;-63
2022/08/09 13:46:03;;;;;;;3.67;3.40;;;;;;;;;;4999101;28;20030;-61
2022/08/09 13:48:29;;;;;;;3.97;3.67;;;;;;;;;;4998194;28;20033;-69
2022/08/09 13:50:54;;;;;;;2.70;2.50;;;;;;;;;;4998348;28;20129;-72
2022/08/09 13:53:19;;;;;;;3.45;3.25;;;;;;;;;;5005249;28;20033;-69
2022/08/09 13:55:45;;;;;;;3.90;3.47;;;;;;;;;;5006659;28;20468;-64
2022/08/09 13:58:10;;;;;;;3.30;2.95;;;;;;;;;;5004629;28;20037;-69
2022/08/09 14:00:37;;;;;;;4.90;3.40;;;;;;;;;;4999824;28;20045;-71
2022/08/09 14:03:02;;;;;;;4.00;3.25;;;;;;;;;;4997782;28;20113;-71
2022/08/09 14:05:28;;;;;;;3.90;2.80;;;;;;;;;;5002266;28;20033;-70
2022/08/09 14:07:53;;;;;;;2.55;2.33;;;;;;;;;;4996825;28;20033;-69
2022/08/09 14:10:18;;;;;;;3.33;3.03;;;;;;;;;;5003298;28;20042;-69
2022/08/09 14:12:44;;;;;;;3.67;3.05;;;;;;;;;;4999694;28;20022;-68
2022/08/09 14:15:09;;;;;;;4.40;2.85;;;;;;;;;;4998691;28;20084;-71
2022/08/09 14:17:34;;;;;;;2.95;2.75;;;;;;;;;;5000744;28;20482;-71
2022/08/09 14:20:00;;;;;;;3.80;3.53;;;;;;;;;;4983687;28;20057;-71
2022/08/09 14:22:25;;;;;;;3.20;3.00;;;;;;;;;;4998222;28;20029;-70
2022/08/09 14:24:50;;;;;;;3.88;3.08;;;;;;;;;;4997565;28;20032;-69
2022/08/09 14:27:15;;;;;;;3.53;3.33;;;;;;;;;;5000141;28;20032;-73
2022/08/09 14:29:41;;;;;;;6.60;4.80;;;;;;;;;;4997514;28;20065;-71
2022/08/09 14:32:06;;;;;;;9.68;3.35;;;;;;;;;;4996510;28;20026;-71
2022/08/09 14:34:31;;;;;;;3.97;3.25;;;;;;;;;;4999586;28;20048;-71
2022/08/09 14:36:57;;;;;;;3.60;2.80;;;;;;;;;;4997386;28;20072;-71
2022/08/09 14:39:22;;;;;;;5.28;3.17;;;;;;;;;;5003409;28;20506;-71
2022/08/09 14:41:47;;;;;;;7.05;2.80;;;;;;;;;;4986822;28;20401;-71